createdAt,value
2022-07-29T00:02:25.000Z,2.54
2022-07-29T00:07:24.000Z,2.54
2022-07-29T00:12:24.000Z,2.53
2022-07-29T00:17:25.000Z,2.6
2022-07-29T00:22:24.000Z,2.54
2022-07-29T00:27:25.000Z,2.57
2022-07-29T00:32:24.000Z,2.57
2022-07-29T00:37:24.000Z,2.62
2022-07-29T00:42:24.000Z,2.53
2022-07-29T00:47:25.000Z,2.5
2022-07-29T00:52:24.000Z,2.5
2022-07-29T00:57:25.000Z,2.48
2022-07-29T01:02:24.000Z,2.49
2022-07-29T01:07:24.000Z,2.58
2022-07-29T01:12:25.000Z,2.68
2022-07-29T01:17:24.000Z,2.9
2022-07-29T01:22:24.000Z,2.48
2022-07-29T01:27:25.000Z,2.37
2022-07-29T01:32:24.000Z,2.44
2022-07-29T01:37:24.000Z,2.39
2022-07-29T01:42:24.000Z,2.42
2022-07-29T01:47:24.000Z,2.42
2022-07-29T01:52:25.000Z,2.43
2022-07-29T01:57:24.000Z,2.43
2022-07-29T02:07:25.000Z,2.54
2022-07-29T02:12:24.000Z,2.55
2022-07-29T02:17:24.000Z,2.51
2022-07-29T02:22:25.000Z,3.3
2022-07-29T02:27:25.000Z,3.3
2022-07-29T02:32:24.000Z,2.72
2022-07-29T02:37:24.000Z,2.62
2022-07-29T02:47:24.000Z,2.66
2022-07-29T02:52:24.000Z,2.71
2022-07-29T02:57:24.000Z,2.71
2022-07-29T03:02:24.000Z,2.68
2022-07-29T03:07:24.000Z,2.68
2022-07-29T03:12:24.000Z,2.75
2022-07-29T03:17:25.000Z,2.7
2022-07-29T03:22:24.000Z,2.99
2022-07-29T03:27:24.000Z,2.73
2022-07-29T03:32:24.000Z,2.65
2022-07-29T03:37:24.000Z,2.71
2022-07-29T03:42:24.000Z,2.61
2022-07-29T03:47:24.000Z,2.61
2022-07-29T03:52:24.000Z,2.54
2022-07-29T04:02:25.000Z,2.53
2022-07-29T04:07:25.000Z,2.53
2022-07-29T04:12:25.000Z,2.52
2022-07-29T04:17:24.000Z,2.52
2022-07-29T04:22:24.000Z,2.62
2022-07-29T04:27:25.000Z,2.62
2022-07-29T04:32:25.000Z,2.61
2022-07-29T04:37:25.000Z,2.6
2022-07-29T04:42:25.000Z,3.01
2022-07-29T04:47:24.000Z,2.54
2022-07-29T04:52:25.000Z,2.32
2022-07-29T04:57:25.000Z,2.55
2022-07-29T05:02:25.000Z,3.05
2022-07-29T05:07:25.000Z,2.61
2022-07-29T05:12:25.000Z,2.61
2022-07-29T05:22:25.000Z,2.47
2022-07-29T05:27:24.000Z,2.63
2022-07-29T05:32:24.000Z,2.15
2022-07-29T05:37:24.000Z,2.64
2022-07-29T05:42:24.000Z,2.26
2022-07-29T05:47:25.000Z,2.15
2022-07-29T05:52:25.000Z,2
2022-07-29T05:57:24.000Z,2.16
2022-07-29T06:02:24.000Z,2.16
2022-07-29T06:07:24.000Z,1.96
2022-07-29T06:12:25.000Z,1.97
2022-07-29T06:17:25.000Z,1.97
2022-07-29T06:22:24.000Z,1.98
2022-07-29T06:27:24.000Z,2.31
2022-07-29T06:32:25.000Z,2.36
2022-07-29T06:37:24.000Z,2.36
2022-07-29T06:42:24.000Z,1.96
2022-07-29T06:47:24.000Z,1.98
2022-07-29T06:52:24.000Z,2.18
2022-07-29T06:57:24.000Z,2.19
2022-07-29T07:02:24.000Z,2.14
2022-07-29T07:12:25.000Z,2.26
2022-07-29T07:17:25.000Z,2.26
2022-07-29T07:22:24.000Z,1.91
2022-07-29T07:27:24.000Z,2.02
2022-07-29T07:32:25.000Z,2.08
2022-07-29T07:37:24.000Z,2.22
2022-07-29T07:42:24.000Z,2.19
2022-07-29T07:47:24.000Z,2.21
2022-07-29T07:52:24.000Z,1.92
2022-07-29T07:57:24.000Z,1.92
2022-07-29T08:02:24.000Z,2.33
2022-07-29T08:07:24.000Z,2.18
2022-07-29T08:12:24.000Z,2.28
2022-07-29T08:17:25.000Z,2.12
2022-07-29T08:22:25.000Z,1.93
2022-07-29T08:27:24.000Z,2.39
2022-07-29T08:32:24.000Z,2.39
2022-07-29T08:37:25.000Z,2.28
2022-07-29T08:42:24.000Z,1.97
2022-07-29T08:47:25.000Z,1.84
2022-07-29T08:52:24.000Z,1.94
2022-07-29T08:57:24.000Z,1.96
2022-07-29T09:02:24.000Z,2.12
2022-07-29T09:12:25.000Z,1.93
2022-07-29T09:17:25.000Z,1.93
2022-07-29T09:22:25.000Z,2.08
2022-07-29T09:27:25.000Z,2.29
2022-07-29T09:32:24.000Z,2.21
2022-07-29T09:42:25.000Z,2.42
2022-07-29T09:47:24.000Z,2.15
2022-07-29T09:52:24.000Z,2.03
2022-07-29T09:57:24.000Z,2.03
2022-07-29T10:02:24.000Z,2.03
2022-07-29T10:12:24.000Z,2.2
2022-07-29T10:17:25.000Z,2.54
2022-07-29T10:22:24.000Z,2.14
2022-07-29T10:27:24.000Z,1.95
2022-07-29T10:32:25.000Z,2.13
2022-07-29T10:37:24.000Z,1.98
2022-07-29T10:42:24.000Z,1.98
2022-07-29T10:47:25.000Z,2.42
2022-07-29T12:12:24.000Z,1.8
2022-07-29T12:17:24.000Z,1.99
2022-07-29T12:22:24.000Z,2.43
2022-07-29T12:27:24.000Z,2.07
2022-07-29T12:32:24.000Z,1.81
2022-07-29T12:37:24.000Z,1.92
2022-07-29T12:42:24.000Z,1.92
2022-07-29T12:47:25.000Z,1.79
2022-07-29T12:57:25.000Z,2.17
2022-07-29T13:02:24.000Z,1.85
2022-07-29T13:07:25.000Z,1.92
2022-07-29T13:12:24.000Z,2.09
2022-07-29T13:17:24.000Z,2.41
2022-07-29T13:22:24.000Z,1.98
2022-07-29T13:27:24.000Z,1.83
2022-07-29T13:32:24.000Z,1.83
2022-07-29T13:37:24.000Z,1.94
2022-07-29T13:42:25.000Z,1.78
2022-07-29T13:47:24.000Z,1.86
2022-07-29T13:52:24.000Z,1.77
2022-07-29T13:57:25.000Z,1.69
2022-07-29T14:02:24.000Z,2.01
2022-07-29T14:07:24.000Z,2.21
2022-07-29T14:12:24.000Z,1.91
2022-07-29T14:17:25.000Z,1.93
2022-07-29T14:22:25.000Z,1.93
2022-07-29T14:27:25.000Z,2.03
2022-07-29T14:32:24.000Z,3.45
2022-07-29T14:37:24.000Z,1.86
2022-07-29T14:42:25.000Z,1.98
2022-07-29T14:47:25.000Z,3.72
2022-07-29T14:52:25.000Z,2.16
2022-07-29T14:57:25.000Z,2.09
2022-07-29T15:02:25.000Z,2.08
2022-07-29T15:07:24.000Z,2.08
2022-07-29T15:12:24.000Z,2.07
2022-07-29T15:17:24.000Z,2.18
2022-07-29T15:22:24.000Z,2.2
2022-07-29T15:27:24.000Z,2.26
2022-07-29T15:32:24.000Z,2.23
2022-07-29T15:37:25.000Z,2.41
2022-07-29T15:42:25.000Z,1.98
2022-07-29T15:47:24.000Z,2.22
2022-07-29T15:52:24.000Z,2.76
2022-07-29T15:57:24.000Z,2.76
2022-07-29T16:02:24.000Z,2.86
2022-07-29T16:07:25.000Z,3.24
2022-07-29T16:12:24.000Z,3.56
2022-07-29T16:17:25.000Z,5.11
2022-07-29T16:22:25.000Z,3.24
2022-07-29T16:27:24.000Z,2.71
2022-07-29T16:32:24.000Z,3.8
2022-07-29T16:37:25.000Z,3.8
2022-07-29T16:42:24.000Z,5.17
2022-07-29T16:47:25.000Z,3.01
2022-07-29T16:52:24.000Z,2.62
2022-07-29T16:57:25.000Z,2.17
2022-07-29T17:02:24.000Z,2.45
2022-07-29T17:07:24.000Z,2.26
2022-07-29T17:12:24.000Z,2.26
2022-07-29T17:17:25.000Z,3.59
2022-07-29T17:22:24.000Z,2.4
2022-07-29T17:27:24.000Z,2.63
2022-07-29T17:32:25.000Z,2.34
2022-07-29T17:37:25.000Z,2.45
2022-07-29T17:42:25.000Z,2.75
2022-07-29T17:47:24.000Z,2.82
2022-07-29T17:52:25.000Z,2.53
2022-07-29T17:57:24.000Z,2.53
2022-07-29T18:02:24.000Z,3.01
2022-07-29T18:07:24.000Z,3.14
2022-07-29T18:12:25.000Z,3.39
2022-07-29T18:17:24.000Z,3.64
2022-07-29T18:22:25.000Z,3.79
2022-07-29T18:27:24.000Z,4
2022-07-29T18:32:24.000Z,3.5
2022-07-29T18:37:25.000Z,3.5
2022-07-29T18:42:24.000Z,3.65
2022-07-29T18:47:24.000Z,3.99
2022-07-29T18:57:24.000Z,3.39
2022-07-29T19:02:25.000Z,3.82
2022-07-29T19:07:24.000Z,4.59
2022-07-29T19:22:24.000Z,3.63
2022-07-29T19:27:24.000Z,3.12
2022-07-29T19:32:25.000Z,2.95
2022-07-29T19:37:24.000Z,2.87
2022-07-29T19:42:25.000Z,3.08
2022-07-29T19:47:24.000Z,3.03
2022-07-29T19:52:25.000Z,2.87
2022-07-29T19:57:25.000Z,2.87
2022-07-29T20:02:24.000Z,2.99
2022-07-29T20:07:24.000Z,3.38
2022-07-29T20:12:24.000Z,3.14
2022-07-29T20:17:24.000Z,3.16
2022-07-29T20:22:24.000Z,3.73
2022-07-29T20:27:25.000Z,3.6
2022-07-29T20:32:25.000Z,3.6
2022-07-29T20:37:24.000Z,3.67
2022-07-29T20:42:24.000Z,3.52
2022-07-29T20:52:25.000Z,3.91
2022-07-29T20:57:25.000Z,4.38
2022-07-29T21:12:24.000Z,3.64
2022-07-29T21:17:24.000Z,3.52
2022-07-29T21:27:24.000Z,3.29
2022-07-29T21:32:25.000Z,3.31
2022-07-29T21:37:24.000Z,3.09
2022-07-29T21:42:24.000Z,3.08
2022-07-29T21:47:24.000Z,3.02
2022-07-29T21:52:24.000Z,3.02
2022-07-29T22:02:24.000Z,3.33
2022-07-29T22:07:24.000Z,3.14
2022-07-29T22:12:24.000Z,2.74
2022-07-29T22:17:24.000Z,2.64
2022-07-29T22:22:24.000Z,2.93
2022-07-29T22:27:24.000Z,2.93
2022-07-29T22:32:25.000Z,2.98
2022-07-29T22:37:24.000Z,3.42
2022-07-29T22:42:24.000Z,3.86
2022-07-29T22:47:25.000Z,3.39
2022-07-29T22:52:24.000Z,3.19
2022-07-29T22:57:24.000Z,3.19
2022-07-29T23:02:24.000Z,3.35
2022-07-29T23:07:24.000Z,3.87
2022-07-29T23:12:24.000Z,2.71
2022-07-29T23:22:24.000Z,2.93
2022-07-29T23:27:24.000Z,3.35
2022-07-29T23:32:25.000Z,2.85
2022-07-29T23:47:24.000Z,3.01
2022-07-29T23:52:25.000Z,3.17
2022-07-29T23:57:24.000Z,3.59
